Alco, Arkansas
Current Conditions -  °F | °C
As of 5:55 PM on Sunday 25 Jan 2015 (Local Time) from KCCA Reporting Station
Overcast Overcast  
Wind Chill: 40°   Ceiling: 3200
Heat Index: 45°   Visibility: 9mi
Dew Point: 34°   Wind: 8mph
Humidity: 66%   Direction: 310°NW
Pressure: 29.93"   Gusts: 17mph
Location:  35.89°N, 92.37°W
Report Text: KCCA 252355Z AUTO 31007G15KT 030V040 9SM OVC032 07/01 A2993 RMK AO2
Loading
Personal Weather Stations






























Interactive Weather Map New forecast layout! Learn more

10-Day Weather Forecast

Advertisements
Track Severe Weather on mobile